.
WxDataArchive / Data Records for 2006-06-30
2006-06-29 June 2006 2006-07-01

Data Records for Friday, 30 June 2006

Time	Temp	Chill	HIndex	Humid	Dewpt	 Wind 	HiWind	WindDir	Rain 	Barom 
-----	----	-----	------	-----	-----	------	------	-------	-----	----- 
00:00	60.1	60.1	60.1	75	52.1	0	0	---	0.00	30.076 
00:05	59.9	59.9	59.9	75	52.0	0	0	---	0.00	30.076 
00:10	59.8	59.8	59.8	76	52.2	0	0	---	0.00	30.076 
00:15	59.6	59.6	59.6	76	52.0	0	0	---	0.00	30.070 
00:20	59.5	59.5	59.5	77	52.3	0	0	---	0.00	30.070 
00:25	59.5	59.5	59.5	77	52.3	0	0	---	0.00	30.070 
00:30	59.3	59.3	59.3	77	52.1	0	0	---	0.00	30.070 
00:35	59.2	59.2	59.2	78	52.3	0	0	---	0.00	30.070 
00:40	59.0	59.0	59.0	78	52.1	0	0	---	0.00	30.070 
00:45	58.9	58.9	58.9	79	52.4	0	0	---	0.00	30.069 
00:50	58.9	58.9	58.9	79	52.4	0	0	---	0.00	30.069 
00:55	58.7	58.7	58.7	79	52.2	0	0	---	0.00	30.069 
01:00	58.6	58.6	58.6	80	52.4	0	0	---	0.00	30.067 
01:05	58.3	58.3	58.3	80	52.2	0	0	---	0.00	30.067 
01:10	58.1	58.1	58.1	81	52.3	0	0	---	0.00	30.067 
01:15	58.1	58.1	58.1	81	52.3	0	0	---	0.00	30.066 
01:20	58.0	58.0	58.0	81	52.2	0	0	---	0.00	30.066 
01:25	58.0	58.0	58.0	81	52.2	0	0	---	0.00	30.066 
01:30	57.8	57.8	57.8	82	52.3	0	0	---	0.00	30.068 
01:35	57.6	57.6	57.6	82	52.1	0	0	---	0.00	30.068 
01:40	57.5	57.5	57.5	82	52.0	0	0	---	0.00	30.068 
01:45	57.3	57.3	57.3	83	52.2	0	0	---	0.00	30.065 
01:50	57.2	57.2	57.2	83	52.1	0	0	---	0.00	30.065 
01:55	57.0	57.0	57.0	83	51.9	0	0	---	0.00	30.065 
02:00	56.9	56.9	56.9	84	52.1	0	0	---	0.00	30.068 
02:05	56.7	56.7	56.7	84	51.9	0	0	---	0.00	30.068 
02:10	56.5	56.5	56.5	84	51.7	0	0	---	0.00	30.068 
02:15	56.3	56.3	56.3	84	51.5	0	0	---	0.00	30.068 
02:20	56.2	56.2	56.2	84	51.4	0	0	---	0.00	30.068 
02:25	56.0	56.0	56.0	85	51.6	0	0	---	0.00	30.068 
02:30	56.0	56.0	56.0	85	51.6	0	0	---	0.00	30.066 
02:35	55.9	55.9	55.9	85	51.5	0	0	---	0.00	30.066 
02:40	55.7	55.7	55.7	86	51.6	0	0	---	0.00	30.066 
02:45	55.7	55.7	55.7	87	51.9	0	0	---	0.00	30.063 
02:50	55.7	55.7	55.7	87	51.9	0	0	---	0.00	30.063 
02:55	55.6	55.6	55.6	87	51.8	0	0	---	0.00	30.063 
03:00	55.4	55.4	55.4	88	51.9	0	0	---	0.00	30.064 
03:05	55.3	55.3	55.3	88	51.8	0	0	---	0.00	30.064 
03:10	55.3	55.3	55.3	88	51.8	0	0	---	0.00	30.064 
03:15	55.1	55.1	55.1	88	51.6	0	0	---	0.00	30.060 
03:20	55.0	55.0	55.0	88	51.5	0	0	---	0.00	30.060 
03:25	54.8	54.8	54.8	89	51.6	0	0	---	0.00	30.060 
03:30	54.7	54.7	54.7	89	51.5	0	0	---	0.00	30.059 
03:35	54.5	54.5	54.5	89	51.3	0	0	---	0.00	30.059 
03:40	54.4	54.4	54.4	89	51.2	0	0	---	0.00	30.059 
03:45	54.2	54.2	54.2	89	51.0	0	0	---	0.00	30.059 
03:50	54.1	54.1	54.1	89	50.9	0	0	---	0.00	30.059 
03:55	53.9	53.9	53.9	90	51.0	0	0	---	0.00	30.059 
04:00	53.9	53.9	53.9	90	51.0	0	0	---	0.00	30.053 
04:05	53.8	53.8	53.8	90	50.9	0	0	---	0.00	30.053 
04:10	53.6	53.6	53.6	90	50.7	0	0	---	0.00	30.053 
04:15	53.5	53.5	53.5	90	50.6	0	0	---	0.00	30.052 
04:20	53.5	53.5	53.5	91	50.9	0	0	---	0.00	30.052 
04:25	53.3	53.3	53.3	91	50.7	0	0	---	0.00	30.052 
04:30	53.3	53.3	53.3	92	51.0	0	0	---	0.00	30.054 
04:35	53.3	53.3	53.3	92	51.0	0	0	---	0.00	30.054 
04:40	53.2	53.2	53.2	92	50.9	0	0	---	0.00	30.054 
04:45	53.1	53.1	53.1	92	50.8	0	0	---	0.00	30.052 
04:50	53.1	53.1	53.1	92	50.8	0	0	---	0.00	30.052 
04:55	52.9	52.9	52.9	92	50.6	0	0	---	0.00	30.052 
05:00	52.8	52.8	52.8	92	50.5	0	0	---	0.00	30.049 
05:05	52.8	52.8	52.8	92	50.5	0	0	---	0.00	30.049 
05:10	52.8	52.8	52.8	92	50.5	0	0	---	0.00	30.049 
05:15	52.6	52.6	52.6	92	50.3	0	0	---	0.00	30.048 
05:20	52.5	52.5	52.5	92	50.2	0	0	---	0.00	30.048 
05:25	52.5	52.5	52.5	93	50.5	0	0	---	0.00	30.048 
05:30	52.3	52.3	52.3	93	50.3	0	0	---	0.00	30.052 
05:35	52.3	52.3	52.3	93	50.3	0	0	---	0.00	30.052 
05:40	52.2	52.2	52.2	93	50.2	0	0	---	0.00	30.052 
05:45	52.0	52.0	52.0	93	50.0	0	0	---	0.00	30.062 
05:50	51.9	51.9	51.9	93	49.9	0	0	---	0.00	30.062 
05:55	51.9	51.9	51.9	93	49.9	0	0	---	0.00	30.062 
06:00	51.9	51.9	51.9	93	49.9	0	0	---	0.00	30.061 
06:05	51.9	51.9	51.9	93	49.9	0	0	---	0.00	30.061 
06:10	51.7	51.7	51.7	93	49.7	0	0	---	0.00	30.061 
06:15	51.7	51.7	51.7	94	50.0	0	0	---	0.00	30.066 
06:20	51.7	51.7	51.7	94	50.0	0	0	---	0.00	30.066 
06:25	51.6	51.6	51.6	94	49.9	0	0	---	0.00	30.066 
06:30	51.7	51.7	51.7	94	50.0	0	0	---	0.00	30.068 
06:35	51.9	51.9	51.9	94	50.2	0	0	---	0.00	30.068 
06:40	51.9	51.9	51.9	94	50.2	0	0	---	0.00	30.068 
06:45	52.0	52.0	52.0	94	50.3	0	0	---	0.00	30.069 
06:50	52.2	52.2	52.2	94	50.5	0	0	---	0.00	30.069 
06:55	52.3	52.3	52.3	94	50.6	0	0	---	0.00	30.069 
07:00	52.5	52.5	52.5	95	51.1	0	0	---	0.00	30.067 
07:05	52.8	52.8	52.8	95	51.4	0	0	---	0.00	30.067 
07:10	53.1	53.1	53.1	95	51.7	0	0	---	0.00	30.067 
07:15	53.3	53.3	53.3	95	51.9	0	0	---	0.00	30.073 
07:20	53.5	53.5	53.5	95	52.1	0	0	---	0.00	30.073 
07:25	54.1	54.1	54.1	95	52.7	0	0	---	0.00	30.073 
07:30	54.7	54.7	54.7	95	53.3	0	0	---	0.00	30.076 
07:35	55.1	55.1	55.1	95	53.7	0	0	---	0.00	30.076 
07:40	55.7	55.7	55.7	95	54.3	0	0	---	0.00	30.076 
07:45	56.0	56.0	56.0	95	54.6	0	0	---	0.00	30.081 
07:50	56.6	56.6	56.6	94	54.9	0	0	---	0.00	30.081 
07:55	57.3	57.3	57.3	93	55.3	0	0	---	0.00	30.081 
08:00	58.1	58.1	58.1	92	55.8	0	0	---	0.00	30.078 
08:05	58.7	58.7	58.7	89	55.5	0	0	---	0.00	30.078 
08:10	59.3	59.3	59.3	87	55.4	0	1	292	0.00	30.078 
08:15	59.9	59.9	59.9	85	55.4	0	0	---	0.00	30.078 
08:20	60.7	60.7	60.7	84	55.8	0	0	---	0.00	30.078 
08:25	61.5	61.5	61.5	82	55.9	0	0	---	0.00	30.078 
08:30	62.3	62.3	62.3	79	55.7	0	0	---	0.00	30.078 
08:35	63.1	63.1	63.1	77	55.8	0	1	292	0.00	30.078 
08:40	64.0	64.0	64.0	75	55.9	0	1	292	0.00	30.078 
08:45	65.3	65.3	65.3	72	56.0	0	1	292	0.00	30.075 
08:50	66.4	66.4	66.4	69	55.9	0	1	292	0.00	30.075 
08:55	67.6	67.6	67.6	65	55.4	0	1	292	0.00	30.075 
09:00	68.3	68.3	68.3	64	55.6	0	1	292	0.00	30.070 
09:05	68.9	68.9	68.9	64	56.2	0	2	292	0.00	30.070 
09:10	69.6	69.6	69.6	62	56.0	0	2	292	0.00	30.070 
09:15	70.3	70.3	70.3	60	55.7	0	1	292	0.00	30.075 
09:20	70.9	70.9	70.9	57	54.9	1	2	292	0.00	30.075 
09:25	71.5	71.5	71.5	54	54.0	0	3	292	0.00	30.075 
09:30	71.3	71.3	71.3	53	53.3	1	3	248	0.00	30.075 
09:35	71.3	71.3	71.3	51	52.2	1	3	248	0.00	30.075 
09:40	71.5	71.5	71.5	53	53.5	1	3	248	0.00	30.075 
09:45	71.3	71.3	71.3	52	52.8	2	4	248	0.00	30.077 
09:50	71.3	71.3	71.3	54	53.8	1	3	270	0.00	30.077 
09:55	71.8	71.8	71.8	54	54.2	1	3	248	0.00	30.077 
10:00	72.1	72.1	72.1	55	55.0	1	3	248	0.00	30.073 
10:05	72.7	72.7	72.7	54	55.1	1	2	315	0.00	30.073 
10:10	72.8	72.8	72.8	52	54.1	1	3	315	0.00	30.073 
10:15	73.2	73.2	73.2	52	54.5	1	4	270	0.00	30.076 
10:20	73.2	73.2	73.2	52	54.5	1	4	270	0.00	30.076 
10:25	73.3	73.3	73.3	52	54.6	1	3	248	0.00	30.076 
10:30	74.0	74.0	74.0	54	56.3	1	3	248	0.00	30.068 
10:35	74.4	74.4	74.4	48	53.4	2	6	248	0.00	30.068 
10:40	74.2	74.2	74.2	48	53.2	2	5	248	0.00	30.068 
10:45	74.7	74.7	74.7	47	53.1	1	3	315	0.00	30.066 
10:50	75.1	75.1	77.7	47	53.5	1	4	248	0.00	30.066 
10:55	75.4	75.4	77.8	47	53.7	0	2	248	0.00	30.066 
11:00	76.0	76.0	78.0	45	53.1	1	3	248	0.00	30.065 
11:05	76.0	76.0	78.0	48	54.9	1	3	248	0.00	30.065 
11:10	76.0	76.0	77.9	43	51.9	2	4	90	0.00	30.065 
11:15	75.8	75.8	77.9	46	53.5	1	4	248	0.00	30.067 
11:20	76.3	76.3	78.1	46	54.0	0	3	135	0.00	30.067 
11:25	76.1	76.1	78.0	43	52.0	2	4	248	0.00	30.067 
11:30	75.8	75.8	77.8	42	51.1	2	5	248	0.00	30.071 
11:35	76.1	76.1	78.0	46	53.8	2	3	112	0.00	30.071 
11:40	76.5	76.5	78.1	42	51.7	1	3	248	0.00	30.071 
11:45	76.7	76.7	78.1	41	51.2	2	4	248	0.00	30.071 
11:50	77.0	77.0	78.2	40	50.8	1	3	248	0.00	30.071 
11:55	77.2	77.2	78.3	40	51.0	1	4	248	0.00	30.071 
12:00	77.2	77.2	78.4	41	51.7	1	3	270	0.00	30.068 
12:05	77.4	77.4	78.5	41	51.8	2	4	248	0.00	30.068 
12:10	77.6	77.6	78.7	43	53.3	1	3	225	0.00	30.068 
12:15	77.7	77.7	78.4	37	49.3	1	2	248	0.00	30.067 
12:20	78.1	78.1	78.8	41	52.5	1	3	248	0.00	30.067 
12:25	78.1	78.1	78.7	39	51.1	1	4	292	0.00	30.067 
12:30	78.3	78.3	78.6	36	49.1	1	4	248	0.00	30.066 
12:35	78.3	78.3	78.8	39	51.3	1	3	270	0.00	30.066 
12:40	78.5	78.5	78.9	39	51.5	1	4	248	0.00	30.066 
12:45	78.8	78.8	79.2	40	52.4	1	3	315	0.00	30.059 
12:50	78.8	78.8	79.1	39	51.7	2	5	90	0.00	30.059 
12:55	79.0	79.0	79.6	44	55.2	1	4	90	0.00	30.059 
13:00	78.8	78.8	79.0	38	51.0	1	3	315	0.00	30.060 
13:05	79.0	79.0	79.4	41	53.3	1	3	315	0.00	30.060 
13:10	79.4	79.4	79.3	37	50.8	1	3	270	0.00	30.060 
13:15	79.6	79.6	79.6	39	52.4	1	4	270	0.00	30.059 
13:20	79.9	79.9	79.6	37	51.3	2	5	112	0.00	30.059 
13:25	79.8	79.8	79.6	37	51.2	2	4	90	0.00	30.059 
13:30	80.1	80.1	79.6	35	50.0	1	4	248	0.00	30.057 
13:35	80.9	80.9	80.1	35	50.7	1	3	112	0.00	30.057 
13:40	81.1	81.1	80.2	34	50.0	2	5	248	0.00	30.057 
13:45	80.3	80.3	79.4	31	46.9	2	5	248	0.00	30.059 
13:50	79.6	79.6	79.2	33	47.9	1	3	248	0.00	30.059 
13:55	79.9	79.9	79.4	34	49.0	1	3	112	0.00	30.059 
14:00	79.4	79.4	79.0	33	47.8	1	3	112	0.00	30.060 
14:05	79.0	79.0	79.0	36	49.7	1	3	248	0.00	30.060 
14:10	79.8	79.8	79.9	41	54.0	1	4	135	0.00	30.060 
14:15	79.8	79.8	79.3	33	48.1	1	6	90	0.00	30.053 
14:20	80.3	80.3	79.6	33	48.5	1	3	90	0.00	30.053 
14:25	80.9	80.9	80.0	33	49.1	2	3	292	0.00	30.053 
14:30	80.5	80.5	79.6	32	47.9	1	4	315	0.00	30.047 
14:35	80.7	80.7	80.0	35	50.5	1	3	338	0.00	30.047 
14:40	80.5	80.5	79.8	34	49.5	1	3	315	0.00	30.047 
14:45	80.9	80.9	79.7	29	45.6	1	3	315	0.00	30.046 
14:50	81.1	81.1	79.9	31	47.6	1	3	248	0.00	30.046 
14:55	81.4	81.4	80.3	33	49.5	1	3	248	0.00	30.046 
15:00	81.6	81.6	80.3	31	48.0	2	4	248	0.00	30.047 
15:05	81.4	81.4	80.1	31	47.8	1	4	292	0.00	30.047 
15:10	81.4	81.4	80.1	30	47.0	1	3	112	0.00	30.047 
15:15	81.6	81.6	80.2	30	47.1	0	3	90	0.00	30.045 
15:20	82.2	82.2	80.7	31	48.5	1	3	90	0.00	30.045 
15:25	82.4	82.4	80.5	27	45.0	2	5	248	0.00	30.045 
15:30	82.4	82.4	80.6	28	46.0	2	4	90	0.00	30.045 
15:35	82.4	82.4	80.6	28	46.0	2	4	248	0.00	30.045 
15:40	82.8	82.8	80.9	28	46.3	2	4	248	0.00	30.045 
15:45	83.0	83.0	81.0	28	46.5	2	4	248	0.00	30.046 
15:50	83.2	83.2	81.2	28	46.7	1	3	248	0.00	30.046 
15:55	83.4	83.4	81.3	27	45.9	1	3	248	0.00	30.046 
16:00	83.0	83.0	81.1	29	47.4	1	3	248	0.00	30.043 
16:05	82.4	82.4	80.6	28	46.0	2	4	90	0.00	30.043 
16:10	82.4	82.4	80.7	29	46.9	2	5	270	0.00	30.043 
16:15	82.4	82.4	80.5	27	45.0	1	3	270	0.00	30.043 
16:20	82.2	82.2	80.5	28	45.8	1	3	270	0.00	30.043 
16:25	82.2	82.2	80.4	27	44.9	2	4	248	0.00	30.043 
16:30	82.2	82.2	80.6	30	47.7	1	2	292	0.00	30.038 
16:35	82.6	82.6	80.8	28	46.2	1	3	248	0.00	30.038 
16:40	82.6	82.6	80.7	27	45.2	1	3	270	0.00	30.038 
16:45	82.6	82.6	80.8	28	46.2	1	3	248	0.00	30.031 
16:50	83.0	83.0	81.0	27	45.5	0	1	248	0.00	30.031 
16:55	83.0	83.0	81.0	28	46.5	1	3	180	0.00	30.031 
17:00	82.6	82.6	80.7	27	45.2	1	3	248	0.00	30.029 
17:05	82.8	82.8	80.9	28	46.3	1	3	248	0.00	30.029 
17:10	82.8	82.8	80.9	28	46.3	0	3	0	0.00	30.029 
17:15	83.0	83.0	81.2	30	48.3	1	3	315	0.00	30.022 
17:20	82.8	82.8	80.9	28	46.3	1	3	270	0.00	30.022 
17:25	82.8	82.8	80.6	24	42.3	1	4	315	0.00	30.022 
17:30	83.0	83.0	80.9	26	44.6	1	4	248	0.00	30.022 
17:35	83.2	83.2	81.0	25	43.7	0	1	248	0.00	30.022 
17:40	83.4	83.4	81.1	25	43.9	0	1	248	0.00	30.022 
17:45	83.0	83.0	80.8	24	42.5	1	3	315	0.00	30.022 
17:50	82.8	82.8	80.6	23	41.2	1	3	270	0.00	30.022 
17:55	82.8	82.8	80.7	25	43.4	0	3	270	0.00	30.022 
18:00	82.4	82.4	80.3	23	40.9	2	4	315	0.00	30.017 
18:05	82.0	82.0	80.1	25	42.7	1	2	270	0.00	30.017 
18:10	81.8	81.8	80.0	25	42.5	0	2	270	0.00	30.017 
18:15	81.8	81.8	80.0	25	42.5	0	2	225	0.00	30.015 
18:20	81.6	81.6	79.9	26	43.4	1	3	270	0.00	30.015 
18:25	81.4	81.4	79.8	26	43.2	0	3	248	0.00	30.015 
18:30	81.4	81.4	79.9	28	45.1	0	1	292	0.00	30.014 
18:35	81.4	81.4	79.9	28	45.1	0	2	292	0.00	30.014 
18:40	81.1	81.1	79.7	27	43.9	0	1	292	0.00	30.014 
18:45	80.7	80.7	79.6	30	46.4	0	3	315	0.00	30.011 
18:50	80.5	80.5	79.4	29	45.3	0	2	315	0.00	30.011 
18:55	80.3	80.3	79.4	30	46.0	0	1	315	0.00	30.011 
19:00	80.1	80.1	79.3	31	46.7	0	2	270	0.00	30.008 
19:05	80.1	80.1	79.3	31	46.7	0	1	270	0.00	30.008 
19:10	79.9	79.9	79.4	34	49.0	0	1	270	0.00	30.008 
19:15	79.6	79.6	79.2	34	48.7	0	1	270	0.00	29.999 
19:20	79.6	79.6	79.2	34	48.7	0	1	270	0.00	29.999 
19:25	79.4	79.4	79.1	34	48.6	0	1	270	0.00	29.999 
19:30	79.2	79.2	79.1	35	49.2	0	1	270	0.00	29.999 
19:35	79.0	79.0	78.9	34	48.2	0	1	270	0.00	29.999 
19:40	78.8	78.8	78.9	36	49.6	0	1	270	0.00	29.999 
19:45	78.6	78.6	78.7	35	48.6	0	1	270	0.00	29.999 
19:50	78.6	78.6	78.7	35	48.6	0	0	---	0.00	29.999 
19:55	78.5	78.5	78.8	37	50.0	0	1	270	0.00	29.999 
20:00	78.3	78.3	78.7	37	49.9	0	0	---	0.00	29.997 
20:05	78.3	78.3	78.7	37	49.9	0	0	---	0.00	29.997 
20:10	77.9	77.9	78.6	38	50.2	0	0	---	0.00	29.997 
20:15	77.7	77.7	78.5	38	50.0	0	0	---	0.00	29.990 
20:20	77.6	77.6	78.5	39	50.7	0	0	---	0.00	29.990 
20:25	77.2	77.2	78.3	39	50.3	0	0	---	0.00	29.990 
20:30	77.0	77.0	78.2	39	50.1	0	0	---	0.00	29.991 
20:35	76.7	76.7	78.1	39	49.9	0	0	---	0.00	29.991 
20:40	76.3	76.3	77.9	40	50.2	0	0	---	0.00	29.991 
20:45	76.0	76.0	77.8	40	49.9	0	0	---	0.00	29.993 
20:50	75.6	75.6	77.7	41	50.2	0	0	---	0.00	29.993 
20:55	75.3	75.3	77.7	43	51.2	0	0	---	0.00	29.993 
21:00	74.9	74.9	74.9	44	51.5	0	0	---	0.00	29.998 
21:05	74.6	74.6	74.6	46	52.4	0	0	---	0.00	29.998 
21:10	74.0	74.0	74.0	47	52.5	0	0	---	0.00	29.998 
21:15	73.7	73.7	73.7	48	52.8	0	0	---	0.00	29.999 
21:20	73.2	73.2	73.2	49	52.9	0	0	---	0.00	29.999 
21:25	72.5	72.5	72.5	47	51.1	0	0	---	0.00	29.999 
21:30	71.8	71.8	71.8	48	51.0	0	0	---	0.00	30.001 
21:35	71.5	71.5	71.5	50	51.9	0	0	---	0.00	30.001 
21:40	71.1	71.1	71.1	51	52.0	0	0	---	0.00	30.001 
21:45	70.6	70.6	70.6	54	53.1	0	0	---	0.00	30.006 
21:50	70.1	70.1	70.1	54	52.7	0	0	---	0.00	30.006 
21:55	69.6	69.6	69.6	55	52.7	0	0	---	0.00	30.006 
22:00	69.3	69.3	69.3	56	52.9	0	0	---	0.00	30.009 
22:05	68.9	68.9	68.9	58	53.5	0	0	---	0.00	30.009 
22:10	68.6	68.6	68.6	58	53.2	0	0	---	0.00	30.009 
22:15	68.3	68.3	68.3	59	53.4	0	0	---	0.00	30.012 
22:20	67.9	67.9	67.9	61	53.9	0	0	---	0.00	30.012 
22:25	67.6	67.6	67.6	61	53.7	0	0	---	0.00	30.012 
22:30	67.3	67.3	67.3	61	53.4	0	0	---	0.00	30.021 
22:35	67.1	67.1	67.1	62	53.6	0	0	---	0.00	30.021 
22:40	66.8	66.8	66.8	63	53.8	0	0	---	0.00	30.021 
22:45	66.6	66.6	66.6	63	53.6	0	0	---	0.00	30.025 
22:50	66.3	66.3	66.3	63	53.3	0	0	---	0.00	30.025 
22:55	66.1	66.1	66.1	63	53.1	0	0	---	0.00	30.025 
23:00	66.0	66.0	66.0	65	53.9	0	0	---	0.00	30.029 
23:05	65.8	65.8	65.8	66	54.1	0	0	---	0.00	30.029 
23:10	65.6	65.6	65.6	67	54.3	0	0	---	0.00	30.029 
23:15	65.5	65.5	65.5	67	54.2	0	0	---	0.00	30.031 
23:20	65.3	65.3	65.3	68	54.5	0	0	---	0.00	30.031 
23:25	65.0	65.0	65.0	67	53.8	0	0	---	0.00	30.031 
23:30	64.8	64.8	64.8	67	53.6	0	0	---	0.00	30.026 
23:35	64.7	64.7	64.7	68	53.9	0	0	---	0.00	30.026 
23:40	64.5	64.5	64.5	68	53.7	0	0	---	0.00	30.026 
23:45	64.3	64.3	64.3	69	53.9	0	0	---	0.00	30.026 
23:50	64.2	64.2	64.2	70	54.2	0	0	---	0.00	30.026 
23:55	64.0	64.0	64.0	71	54.4	0	0	---	0.00	30.026 

CoCoRaHS
IN-AL-39
A2 Web Hosting
Creative Commons License
GoDaddy
Look for:

loaded 2017-12-12 17:10:16 • last modified 2010-11-18 10:43:29
Privacy PolicyDisclaimer
• wx.awcolley.com is powered by PmWiki v.2002016 •
• all content (unless otherwise noted) © 2017 A W Colley